createdAt,value
2019-05-07T00:02:13.479Z,7.50
2019-05-07T00:04:42.796Z,19.47
2019-05-07T00:07:09.941Z,24.73
2019-05-07T00:09:37.275Z,14.47
2019-05-07T00:12:05.087Z,12.47
2019-05-07T00:14:34.644Z,8.00
2019-05-07T00:17:02.266Z,7.40
2019-05-07T00:19:32.420Z,6.23
2019-05-07T00:22:02.212Z,6.23
2019-05-07T00:24:28.732Z,8.67
2019-05-07T00:26:56.180Z,8.43
2019-05-07T00:29:23.543Z,11.60
2019-05-07T00:31:52.101Z,8.50
2019-05-07T00:34:21.962Z,7.23
2019-05-07T00:36:54.068Z,6.87
2019-05-07T00:39:25.579Z,6.07
2019-05-07T00:41:54.624Z,6.03
2019-05-07T00:44:22.669Z,5.23
2019-05-07T00:46:50.005Z,5.07
2019-05-07T00:49:17.812Z,4.90
2019-05-07T00:51:45.174Z,5.00
2019-05-07T00:54:12.489Z,6.60
2019-05-07T00:56:39.930Z,5.50
2019-05-07T00:59:07.227Z,4.77
2019-05-07T01:01:35.338Z,6.10
2019-05-07T01:04:02.881Z,5.23
2019-05-07T01:06:32.909Z,5.27
2019-05-07T01:09:00.318Z,4.57
2019-05-07T01:11:27.690Z,4.50
2019-05-07T01:13:55.046Z,4.33
2019-05-07T01:16:22.416Z,4.40
2019-05-07T01:18:49.752Z,4.20
2019-05-07T01:21:17.190Z,4.27
2019-05-07T01:23:44.608Z,4.80
2019-05-07T01:26:12.530Z,4.40
2019-05-07T01:28:58.348Z,4.70
2019-05-07T01:31:27.826Z,4.77
2019-05-07T01:33:56.790Z,5.30
2019-05-07T01:36:24.114Z,5.27
2019-05-07T01:38:52.271Z,5.20
2019-05-07T01:41:19.756Z,4.67
2019-05-07T01:43:47.138Z,5.07
2019-05-07T01:46:14.482Z,4.83
2019-05-07T01:48:42.926Z,4.77
2019-05-07T01:51:12.676Z,5.23
2019-05-07T01:53:39.466Z,5.40
2019-05-07T01:56:06.788Z,5.13
2019-05-07T01:58:34.140Z,5.60
2019-05-07T02:01:02.751Z,5.13
2019-05-07T02:03:35.118Z,4.87
2019-05-07T02:06:04.146Z,6.20
2019-05-07T02:08:48.040Z,5.37
2019-05-07T02:11:16.995Z,5.80
2019-05-07T02:13:44.387Z,5.50
2019-05-07T02:16:12.440Z,5.33
2019-05-07T02:18:42.273Z,5.57
2019-05-07T02:21:09.033Z,5.73
2019-05-07T02:23:36.437Z,5.43
2019-05-07T02:26:03.818Z,5.50
2019-05-07T02:28:32.929Z,5.70
2019-05-07T02:31:00.196Z,5.67
2019-05-07T02:33:27.545Z,6.30
2019-05-07T02:35:54.953Z,6.37
2019-05-07T02:38:29.811Z,5.93
2019-05-07T02:41:04.977Z,5.87
2019-05-07T02:43:33.866Z,5.10
2019-05-07T02:46:21.356Z,6.07
2019-05-07T02:48:36.634Z,4.70
2019-05-07T02:51:08.789Z,5.53
2019-05-07T02:53:49.850Z,5.33
2019-05-07T02:56:17.170Z,5.47
2019-05-07T02:58:44.529Z,5.50
2019-05-07T03:01:13.834Z,5.73
2019-05-07T03:03:44.709Z,6.97
2019-05-07T03:06:13.291Z,5.80
2019-05-07T03:08:39.745Z,6.53
2019-05-07T03:11:07.166Z,5.47
2019-05-07T03:13:34.496Z,6.13
2019-05-07T03:16:03.824Z,5.80
2019-05-07T03:18:33.390Z,6.10
2019-05-07T03:21:03.455Z,5.40
2019-05-07T03:23:35.217Z,6.20
2019-05-07T03:26:13.815Z,5.90
2019-05-07T03:28:53.689Z,5.47
2019-05-07T03:31:26.291Z,6.33
2019-05-07T03:34:16.441Z,6.17
2019-05-07T03:36:47.631Z,7.40
2019-05-07T03:39:14.553Z,7.80
2019-05-07T03:41:43.347Z,6.83
2019-05-07T03:44:28.443Z,6.80
2019-05-07T03:47:02.166Z,7.43
2019-05-07T03:49:33.800Z,6.93
2019-05-07T03:51:59.658Z,7.63
2019-05-07T03:54:26.993Z,7.80
2019-05-07T03:56:54.390Z,8.03
2019-05-07T03:59:23.107Z,7.20
2019-05-07T04:01:53.581Z,7.33
2019-05-07T04:04:22.790Z,7.63
2019-05-07T04:06:48.776Z,7.30
2019-05-07T04:09:16.185Z,8.33
2019-05-07T04:11:43.590Z,7.90
2019-05-07T04:14:13.456Z,8.00
2019-05-07T04:16:40.064Z,7.93
2019-05-07T04:19:07.415Z,8.10
2019-05-07T04:21:34.772Z,8.10
2019-05-07T04:24:13.615Z,7.40
2019-05-07T04:26:43.066Z,7.43
2019-05-07T04:29:13.273Z,8.17
2019-05-07T04:31:43.479Z,7.67
2019-05-07T04:34:15.000Z,7.87
2019-05-07T04:36:44.042Z,8.40
2019-05-07T04:39:13.349Z,7.87
2019-05-07T04:41:43.202Z,7.77
2019-05-07T04:44:09.376Z,9.13
2019-05-07T04:46:36.690Z,8.60
2019-05-07T04:49:04.210Z,8.07
2019-05-07T04:51:33.720Z,7.87
2019-05-07T04:54:03.598Z,9.00
2019-05-07T04:56:30.173Z,8.53
2019-05-07T04:58:57.529Z,8.27
2019-05-07T05:01:26.590Z,8.17
2019-05-07T05:03:54.307Z,7.97
2019-05-07T05:06:24.207Z,8.67
2019-05-07T05:08:55.685Z,8.43
2019-05-07T05:11:19.764Z,7.83
2019-05-07T05:13:47.122Z,9.47
2019-05-07T05:16:24.832Z,8.93
2019-05-07T05:18:52.597Z,7.93
2019-05-07T05:21:22.806Z,7.80
2019-05-07T05:23:52.311Z,8.40
2019-05-07T05:26:21.829Z,7.10
2019-05-07T05:28:48.922Z,6.50
2019-05-07T05:31:16.279Z,6.63
2019-05-07T05:33:43.707Z,6.90
2019-05-07T05:36:12.693Z,6.73
2019-05-07T05:38:42.165Z,5.47
2019-05-07T05:41:09.266Z,6.17
2019-05-07T05:43:42.530Z,6.37
2019-05-07T05:46:14.048Z,9.60
2019-05-07T05:48:42.561Z,9.03
2019-05-07T05:51:26.570Z,7.40
2019-05-07T05:54:12.798Z,7.67
2019-05-07T05:56:56.844Z,7.23
2019-05-07T05:59:44.979Z,7.43
2019-05-07T06:01:59.002Z,7.17
2019-05-07T06:04:27.994Z,5.80
2019-05-07T06:07:10.351Z,4.73
2019-05-07T06:09:44.066Z,6.50
2019-05-07T06:12:24.890Z,5.40
2019-05-07T06:14:54.042Z,6.43
2019-05-07T06:17:39.362Z,7.47
2019-05-07T06:20:26.634Z,6.27
2019-05-07T06:23:12.843Z,6.17
2019-05-07T06:25:42.928Z,7.47
2019-05-07T06:28:12.477Z,7.37
2019-05-07T06:30:39.125Z,6.20
2019-05-07T06:33:06.452Z,7.23
2019-05-07T06:35:33.758Z,6.50
2019-05-07T06:38:02.848Z,7.00
2019-05-07T06:40:32.274Z,7.37
2019-05-07T06:43:03.139Z,6.43
2019-05-07T06:45:35.469Z,5.27
2019-05-07T06:48:03.129Z,4.67
2019-05-07T06:50:32.548Z,4.77
2019-05-07T06:52:59.343Z,5.37
2019-05-07T06:55:26.789Z,5.53
2019-05-07T06:57:54.143Z,5.40
2019-05-07T07:00:23.122Z,6.27
2019-05-07T07:02:58.070Z,6.63
2019-05-07T07:05:34.359Z,6.07
2019-05-07T07:08:03.815Z,6.43
2019-05-07T07:10:48.865Z,6.40
2019-05-07T07:13:16.359Z,5.77
2019-05-07T07:15:43.672Z,5.27
2019-05-07T07:18:12.263Z,6.00
2019-05-07T07:20:39.682Z,5.43
2019-05-07T07:23:07.048Z,4.97
2019-05-07T07:25:34.462Z,5.37
2019-05-07T07:28:02.737Z,5.67
2019-05-07T07:30:34.793Z,5.50
2019-05-07T07:33:03.769Z,5.30
2019-05-07T07:35:32.175Z,5.67
2019-05-07T07:37:59.632Z,4.33
2019-05-07T07:40:37.664Z,3.50
2019-05-07T07:43:06.983Z,4.53
2019-05-07T07:45:33.972Z,4.70
2019-05-07T07:48:02.290Z,4.43
2019-05-07T07:50:29.928Z,3.83
2019-05-07T07:52:57.259Z,4.53
2019-05-07T07:55:26.207Z,5.07
2019-05-07T07:58:02.665Z,4.00
2019-05-07T08:00:48.209Z,4.57
2019-05-07T08:03:15.531Z,4.17
2019-05-07T08:05:42.942Z,4.87
2019-05-07T08:08:12.661Z,4.43
2019-05-07T08:10:39.330Z,3.17
2019-05-07T08:13:06.631Z,2.77
2019-05-07T08:15:34.032Z,2.57
2019-05-07T08:18:02.812Z,2.30
2019-05-07T08:20:32.676Z,2.73
2019-05-07T08:23:02.722Z,2.60
2019-05-07T08:25:32.165Z,3.00
2019-05-07T08:27:59.528Z,3.23
2019-05-07T08:30:28.483Z,2.77
2019-05-07T08:33:03.509Z,2.47
2019-05-07T08:35:32.736Z,3.27
2019-05-07T08:38:02.173Z,3.30
2019-05-07T08:40:29.068Z,3.47
2019-05-07T08:42:57.240Z,3.60
2019-05-07T08:45:43.285Z,4.87
2019-05-07T08:48:18.003Z,4.37
2019-05-07T08:50:45.360Z,3.23
2019-05-07T08:53:13.167Z,4.83
2019-05-07T08:55:42.432Z,3.90
2019-05-07T08:58:11.917Z,2.77
2019-05-07T09:00:38.945Z,2.90
2019-05-07T09:03:18.607Z,2.93
2019-05-07T09:05:35.629Z,2.93
2019-05-07T09:08:03.001Z,2.50
2019-05-07T09:10:32.306Z,3.07
2019-05-07T09:12:59.307Z,3.20
2019-05-07T09:15:26.783Z,3.47
2019-05-07T09:17:54.098Z,2.30
2019-05-07T09:20:22.879Z,2.27
2019-05-07T09:22:51.849Z,2.93
2019-05-07T09:25:19.239Z,2.47
2019-05-07T09:27:48.452Z,3.00
2019-05-07T09:30:17.415Z,2.17
2019-05-07T09:32:58.339Z,2.20
2019-05-07T09:35:39.847Z,1.50
2019-05-07T09:38:07.461Z,2.47
2019-05-07T09:40:34.780Z,2.63
2019-05-07T09:43:02.566Z,2.90
2019-05-07T09:45:30.061Z,2.80
2019-05-07T09:47:57.458Z,2.27
2019-05-07T09:50:24.794Z,3.17
2019-05-07T09:52:52.208Z,2.80
2019-05-07T09:55:19.548Z,2.80
2019-05-07T09:57:46.883Z,3.20
2019-05-07T10:00:14.775Z,3.03
2019-05-07T10:02:42.513Z,3.23
2019-05-07T10:05:10.223Z,3.57
2019-05-07T10:07:37.618Z,3.53
2019-05-07T10:10:06.825Z,3.27
2019-05-07T10:12:35.766Z,2.53
2019-05-07T10:15:03.264Z,3.37
2019-05-07T10:17:34.917Z,2.87
2019-05-07T10:20:04.436Z,3.50
2019-05-07T10:22:32.148Z,4.07
2019-05-07T10:24:59.599Z,3.73
2019-05-07T10:27:26.931Z,4.47
2019-05-07T10:29:54.249Z,4.40
2019-05-07T10:32:21.641Z,4.37
2019-05-07T10:34:48.974Z,3.70
2019-05-07T10:37:16.299Z,3.17
2019-05-07T10:39:43.618Z,2.57
2019-05-07T10:42:12.307Z,3.10
2019-05-07T10:44:43.283Z,3.70
2019-05-07T10:47:28.952Z,5.00
2019-05-07T10:50:16.033Z,4.97
2019-05-07T10:52:43.736Z,4.50
2019-05-07T10:55:12.011Z,5.93
2019-05-07T10:57:39.530Z,5.43
2019-05-07T11:00:06.992Z,4.90
2019-05-07T11:02:34.370Z,4.47
2019-05-07T11:05:02.303Z,5.33
2019-05-07T11:07:29.822Z,5.37
2019-05-07T11:09:57.138Z,5.57
2019-05-07T11:12:24.493Z,5.20
2019-05-07T11:14:51.808Z,5.30
2019-05-07T11:17:32.772Z,5.40
2019-05-07T11:20:00.017Z,3.80
2019-05-07T11:22:27.376Z,3.30
2019-05-07T11:24:54.725Z,3.20
2019-05-07T11:27:22.516Z,3.97
2019-05-07T11:29:49.990Z,4.30
2019-05-07T11:32:17.384Z,4.50
2019-05-07T11:34:45.090Z,5.17
2019-05-07T11:37:12.432Z,5.33
2019-05-07T11:39:39.772Z,3.27
2019-05-07T11:42:21.980Z,4.53
2019-05-07T11:44:52.146Z,4.47
2019-05-07T11:47:22.463Z,2.67
2019-05-07T11:49:56.824Z,2.20
2019-05-07T11:52:25.848Z,2.00
2019-05-07T11:54:53.198Z,4.90
2019-05-07T11:57:22.149Z,6.07
2019-05-07T11:59:51.581Z,3.40
2019-05-07T12:02:18.524Z,10.40
2019-05-07T12:04:45.857Z,12.40
2019-05-07T12:07:13.154Z,6.87
2019-05-07T12:09:40.552Z,4.20
2019-05-07T12:12:07.891Z,4.03
2019-05-07T12:14:35.228Z,3.47
2019-05-07T12:17:02.768Z,4.60
2019-05-07T12:19:30.243Z,4.10
2019-05-07T12:21:57.619Z,4.10
2019-05-07T12:24:24.957Z,4.17
2019-05-07T12:26:52.382Z,3.33
2019-05-07T12:29:21.949Z,3.50
2019-05-07T12:32:06.536Z,3.90
2019-05-07T12:34:35.505Z,8.20
2019-05-07T12:37:02.815Z,5.90
2019-05-07T12:39:31.850Z,4.07
2019-05-07T12:41:59.161Z,4.87
2019-05-07T12:44:26.540Z,4.80
2019-05-07T12:46:53.853Z,3.97
2019-05-07T12:49:22.158Z,3.20
2019-05-07T12:51:51.234Z,4.33
2019-05-07T12:54:25.938Z,4.63
2019-05-07T12:56:53.294Z,3.50
2019-05-07T12:59:21.838Z,4.13
2019-05-07T13:01:52.110Z,3.73
2019-05-07T13:04:27.012Z,3.17
2019-05-07T13:06:58.493Z,2.90
2019-05-07T13:09:25.805Z,2.97
2019-05-07T13:11:53.414Z,3.00
2019-05-07T13:14:21.793Z,3.43
2019-05-07T13:16:49.309Z,2.93
2019-05-07T13:19:16.715Z,3.83
2019-05-07T13:21:49.863Z,3.57
2019-05-07T13:24:14.897Z,3.07
2019-05-07T13:26:42.772Z,4.10
2019-05-07T13:29:10.213Z,3.20
2019-05-07T13:31:37.515Z,4.10
2019-05-07T13:34:04.925Z,3.47
2019-05-07T13:36:32.773Z,3.90
2019-05-07T13:39:07.263Z,3.67
2019-05-07T13:41:42.189Z,3.97
2019-05-07T13:44:23.269Z,4.23
2019-05-07T13:46:53.035Z,4.63
2019-05-07T13:49:21.960Z,3.27
2019-05-07T13:52:01.002Z,4.33
2019-05-07T13:54:18.463Z,4.27
2019-05-07T13:56:45.882Z,3.93
2019-05-07T13:59:13.317Z,5.17
2019-05-07T14:01:48.273Z,4.53
2019-05-07T14:04:15.584Z,2.63
2019-05-07T14:06:43.244Z,1.90
2019-05-07T14:09:13.266Z,2.50
2019-05-07T14:11:42.352Z,2.73
2019-05-07T14:14:12.148Z,2.83
2019-05-07T14:16:38.921Z,2.70
2019-05-07T14:19:06.351Z,2.60
2019-05-07T14:21:33.727Z,2.50
2019-05-07T14:24:01.052Z,2.90
2019-05-07T14:26:28.413Z,2.57
2019-05-07T14:28:55.733Z,3.80
2019-05-07T14:31:23.099Z,2.83
2019-05-07T14:34:12.402Z,2.77
2019-05-07T14:36:42.655Z,3.73
2019-05-07T14:39:09.913Z,3.33
2019-05-07T14:41:37.335Z,5.37
2019-05-07T14:44:15.291Z,3.77
2019-05-07T14:46:50.200Z,3.13
2019-05-07T14:49:12.118Z,2.80
2019-05-07T14:51:39.731Z,4.07
2019-05-07T14:54:07.336Z,4.53
2019-05-07T14:56:35.019Z,6.10
2019-05-07T14:59:02.409Z,10.10
2019-05-07T15:01:29.706Z,8.47
2019-05-07T15:03:57.101Z,6.40
2019-05-07T15:06:24.596Z,5.90
2019-05-07T15:08:52.272Z,9.07
2019-05-07T15:11:19.757Z,8.90
2019-05-07T15:13:47.092Z,7.40
2019-05-07T15:16:14.471Z,6.37
2019-05-07T15:18:43.445Z,4.53
2019-05-07T15:21:12.303Z,4.40
2019-05-07T15:23:42.466Z,3.73
2019-05-07T15:26:09.658Z,3.60
2019-05-07T15:28:38.554Z,3.77
2019-05-07T15:31:19.748Z,3.67
2019-05-07T15:33:47.056Z,3.90
2019-05-07T15:36:14.430Z,4.70
2019-05-07T15:38:42.885Z,4.50
2019-05-07T15:41:10.449Z,4.57
2019-05-07T15:43:37.768Z,2.90
2019-05-07T15:46:05.227Z,3.67
2019-05-07T15:48:32.795Z,3.50
2019-05-07T15:51:00.300Z,3.17
2019-05-07T15:53:38.185Z,2.90
2019-05-07T15:56:05.906Z,3.57
2019-05-07T15:58:33.306Z,3.60
2019-05-07T16:01:02.216Z,5.00
2019-05-07T16:03:40.132Z,4.37
2019-05-07T16:06:07.495Z,4.33
2019-05-07T16:08:36.440Z,4.13
2019-05-07T16:11:03.897Z,4.27
2019-05-07T16:13:32.970Z,3.90
2019-05-07T16:16:02.302Z,5.17
2019-05-07T16:18:33.953Z,5.53
2019-05-07T16:21:02.093Z,5.00
2019-05-07T16:23:32.455Z,4.93
2019-05-07T16:25:59.350Z,5.43
2019-05-07T16:28:26.696Z,5.50
2019-05-07T16:30:54.080Z,6.67
2019-05-07T16:33:21.382Z,5.33
2019-05-07T16:35:48.680Z,5.83
2019-05-07T16:38:18.099Z,5.60
2019-05-07T16:40:45.065Z,5.67
2019-05-07T16:43:12.462Z,5.63
2019-05-07T16:45:42.267Z,6.27
2019-05-07T16:48:09.157Z,5.23
2019-05-07T16:50:36.505Z,6.23
2019-05-07T16:53:03.930Z,6.03
2019-05-07T16:55:32.920Z,8.07
2019-05-07T16:58:20.582Z,7.47
2019-05-07T17:00:54.652Z,8.17
2019-05-07T17:03:23.635Z,8.60
2019-05-07T17:05:52.379Z,7.53
2019-05-07T17:08:22.350Z,9.10
2019-05-07T17:10:50.017Z,8.27
2019-05-07T17:13:17.339Z,9.40
2019-05-07T17:15:55.667Z,8.67
2019-05-07T17:18:23.859Z,9.20
2019-05-07T17:20:52.329Z,8.57
2019-05-07T17:23:19.718Z,8.33
2019-05-07T17:25:47.057Z,6.80
2019-05-07T17:28:14.449Z,6.40
2019-05-07T17:30:42.181Z,5.50
2019-05-07T17:33:09.763Z,6.50
2019-05-07T17:35:37.065Z,5.43
2019-05-07T17:38:08.972Z,6.67
2019-05-07T17:40:33.426Z,7.17
2019-05-07T17:43:02.993Z,7.17
2019-05-07T17:45:32.214Z,7.53
2019-05-07T17:47:58.834Z,8.40
2019-05-07T17:50:43.161Z,8.63
2019-05-07T17:53:11.993Z,7.83
2019-05-07T17:55:39.501Z,8.80
2019-05-07T17:58:06.866Z,7.83
2019-05-07T18:00:34.193Z,8.77
2019-05-07T18:03:05.877Z,8.67
2019-05-07T18:05:33.216Z,8.80
2019-05-07T18:08:02.064Z,10.67
2019-05-07T18:10:31.751Z,12.50
2019-05-07T18:12:58.540Z,12.53
2019-05-07T18:15:25.849Z,11.67
2019-05-07T18:17:54.848Z,15.83
2019-05-07T18:20:22.291Z,18.00
2019-05-07T18:22:49.605Z,23.33
2019-05-07T18:25:16.928Z,20.13
2019-05-07T18:27:44.277Z,28.73
2019-05-07T18:30:12.890Z,25.43
2019-05-07T18:32:42.660Z,19.47
2019-05-07T18:35:12.482Z,16.50
2019-05-07T18:37:41.846Z,16.23
2019-05-07T18:40:09.364Z,16.83
2019-05-07T18:42:36.708Z,14.63
2019-05-07T18:45:05.749Z,14.23
2019-05-07T18:47:33.242Z,13.67
2019-05-07T18:50:02.716Z,14.40
2019-05-07T18:52:29.619Z,14.17
2019-05-07T18:54:57.541Z,16.37
2019-05-07T18:57:26.521Z,16.73
2019-05-07T18:59:53.864Z,21.23
2019-05-07T19:02:22.530Z,27.20
2019-05-07T19:04:51.943Z,25.70
2019-05-07T19:07:19.632Z,22.77
2019-05-07T19:09:47.862Z,19.50
2019-05-07T19:12:16.792Z,19.03
2019-05-07T19:14:44.301Z,18.77
2019-05-07T19:17:12.264Z,17.87
2019-05-07T19:19:41.723Z,18.50
2019-05-07T19:22:08.707Z,19.60
2019-05-07T19:24:47.133Z,21.30
2019-05-07T19:27:05.052Z,21.13
2019-05-07T19:29:32.766Z,22.37
2019-05-07T19:32:00.234Z,22.57
2019-05-07T19:34:27.670Z,22.83
2019-05-07T19:36:55.200Z,23.13
2019-05-07T19:39:23.367Z,23.27
2019-05-07T19:41:52.348Z,23.53
2019-05-07T19:44:20.324Z,24.20
2019-05-07T19:46:47.727Z,29.70
2019-05-07T19:49:16.781Z,29.37
2019-05-07T19:51:44.099Z,33.10
2019-05-07T19:54:11.441Z,51.68
2019-05-07T19:56:40.005Z,53.90
2019-05-07T19:59:07.329Z,49.53
2019-05-07T20:01:36.340Z,39.67
2019-05-07T20:04:03.688Z,35.30
2019-05-07T20:06:32.419Z,36.10
2019-05-07T20:09:09.879Z,40.20
2019-05-07T20:11:32.000Z,43.07
2019-05-07T20:14:01.889Z,86.30
2019-05-07T20:16:28.855Z,115.40
2019-05-07T20:18:56.264Z,103.80
2019-05-07T20:21:24.101Z,92.83
2019-05-07T20:23:52.730Z,105.50
2019-05-07T20:26:20.365Z,104.10
2019-05-07T20:28:47.727Z,106.37
2019-05-07T20:31:15.209Z,96.40
2019-05-07T20:33:42.582Z,103.37
2019-05-07T20:36:09.916Z,85.33
2019-05-07T20:38:37.334Z,88.63
2019-05-07T20:41:04.697Z,81.20
2019-05-07T20:43:32.767Z,83.63
2019-05-07T20:46:02.490Z,74.80
2019-05-07T20:48:29.445Z,76.40
2019-05-07T20:50:56.772Z,77.47
2019-05-07T20:53:42.382Z,79.80
2019-05-07T20:56:11.709Z,74.23
2019-05-07T20:58:39.199Z,72.47
2019-05-07T21:01:06.493Z,71.27
2019-05-07T21:03:33.867Z,74.83
2019-05-07T21:06:02.260Z,72.57
2019-05-07T21:08:31.909Z,74.57
2019-05-07T21:10:58.830Z,75.47
2019-05-07T21:13:31.420Z,70.57
2019-05-07T21:15:55.628Z,67.17
2019-05-07T21:18:23.498Z,63.70
2019-05-07T21:20:52.944Z,64.23
2019-05-07T21:23:19.959Z,60.57
2019-05-07T21:25:47.439Z,64.40
2019-05-07T21:28:14.875Z,64.30
2019-05-07T21:30:42.791Z,65.20
2019-05-07T21:33:11.933Z,64.70
2019-05-07T21:35:39.569Z,63.57
2019-05-07T21:38:06.927Z,65.47
2019-05-07T21:40:34.275Z,63.23
2019-05-07T21:43:01.602Z,64.43
2019-05-07T21:45:29.210Z,78.30
2019-05-07T21:47:56.598Z,80.43
2019-05-07T21:50:24.021Z,74.50
2019-05-07T21:53:04.931Z,82.83
2019-05-07T21:55:34.003Z,76.70
2019-05-07T21:58:03.066Z,79.93
2019-05-07T22:00:32.575Z,84.23
2019-05-07T22:03:02.003Z,85.20
2019-05-07T22:05:29.531Z,85.50
2019-05-07T22:07:57.091Z,98.17
2019-05-07T22:10:24.438Z,96.93
2019-05-07T22:12:52.005Z,93.43
2019-05-07T22:15:22.453Z,88.03
2019-05-07T22:17:51.700Z,91.67
2019-05-07T22:20:18.957Z,85.90
2019-05-07T22:22:46.319Z,88.10
2019-05-07T22:25:13.651Z,90.40
2019-05-07T22:27:42.167Z,91.87
2019-05-07T22:30:12.522Z,93.10
2019-05-07T22:32:47.931Z,93.40
2019-05-07T22:35:28.762Z,90.07
2019-05-07T22:37:56.129Z,95.70
2019-05-07T22:40:23.453Z,103.47
2019-05-07T22:42:50.823Z,106.17
2019-05-07T22:45:18.157Z,107.43
2019-05-07T22:47:45.789Z,104.67
2019-05-07T22:50:13.145Z,105.57
2019-05-07T22:52:40.577Z,102.90
2019-05-07T22:55:08.005Z,103.63
2019-05-07T22:57:43.465Z,103.63
2019-05-07T23:00:12.633Z,95.33
2019-05-07T23:02:40.123Z,85.00
2019-05-07T23:05:07.543Z,79.80
2019-05-07T23:07:35.203Z,76.40
2019-05-07T23:10:02.986Z,78.07
2019-05-07T23:12:32.538Z,73.83
2019-05-07T23:14:59.384Z,76.77
2019-05-07T23:17:26.791Z,72.77
2019-05-07T23:19:55.143Z,69.40
2019-05-07T23:22:22.745Z,70.37
2019-05-07T23:24:51.995Z,69.07
2019-05-07T23:27:22.263Z,64.03
2019-05-07T23:29:48.500Z,63.67
2019-05-07T23:32:15.846Z,62.80
2019-05-07T23:34:43.464Z,59.17
2019-05-07T23:37:11.746Z,59.00
2019-05-07T23:39:43.794Z,58.30
2019-05-07T23:42:12.936Z,58.93
2019-05-07T23:44:42.016Z,55.07
2019-05-07T23:47:09.585Z,57.70
2019-05-07T23:49:36.905Z,56.50
2019-05-07T23:52:04.260Z,53.50
2019-05-07T23:54:32.011Z,51.77
2019-05-07T23:57:07.110Z,51.63
2019-05-07T23:59:32.873Z,51.67
